createdAt,value
2019-05-10T00:00:05.813Z,73.10
2019-05-10T00:03:02.149Z,73.20
2019-05-10T00:06:00.431Z,72.50
2019-05-10T00:08:47.354Z,72.40
2019-05-10T00:11:38.642Z,72.40
2019-05-10T00:14:37.741Z,73.60
2019-05-10T00:17:24.219Z,73.90
2019-05-10T00:20:06.810Z,73.10
2019-05-10T00:22:49.625Z,74.50
2019-05-10T00:25:30.898Z,74.30
2019-05-10T00:28:11.221Z,74.30
2019-05-10T00:30:52.201Z,74.80
2019-05-10T00:33:33.591Z,75.40
2019-05-10T00:36:22.506Z,73.40
2019-05-10T00:39:04.364Z,72.00
2019-05-10T00:41:46.040Z,71.80
2019-05-10T00:44:34.166Z,71.20
2019-05-10T00:47:15.039Z,71.40
2019-05-10T00:52:55.273Z,71.80
2019-05-10T00:55:35.168Z,70.90
2019-05-10T00:58:13.521Z,71.90
2019-05-10T01:01:00.090Z,71.20
2019-05-10T01:03:41.011Z,71.40
2019-05-10T01:12:25.972Z,71.10
2019-05-10T01:15:05.020Z,70.40
2019-05-10T01:17:45.196Z,70.60
2019-05-10T01:20:25.250Z,70.60
2019-05-10T01:26:05.073Z,70.60
2019-05-10T01:28:49.237Z,70.10
2019-05-10T01:31:40.178Z,70.00
2019-05-10T01:34:20.159Z,70.90
2019-05-10T01:37:00.604Z,72.00
2019-05-10T01:39:39.366Z,70.70
2019-05-10T01:45:15.090Z,70.60
2019-05-10T01:47:59.342Z,69.80
2019-05-10T01:50:42.303Z,69.60
2019-05-10T01:53:23.019Z,69.20
2019-05-10T01:56:05.210Z,69.40
2019-05-10T01:58:47.260Z,69.40
2019-05-10T02:01:27.706Z,70.10
2019-05-10T02:04:08.899Z,68.70
2019-05-10T02:06:51.758Z,67.90
2019-05-10T02:15:28.509Z,70.20
2019-05-10T02:18:14.711Z,69.60
2019-05-10T02:20:55.081Z,69.40
2019-05-10T02:23:37.538Z,69.60
2019-05-10T02:26:18.463Z,68.90
2019-05-10T02:29:00.677Z,68.10
2019-05-10T02:31:43.610Z,69.00
2019-05-10T02:34:24.805Z,69.80
2019-05-10T02:37:06.622Z,67.50
2019-05-10T02:39:57.940Z,68.80
2019-05-10T02:42:40.589Z,67.40
2019-05-10T02:45:20.000Z,66.70
2019-05-10T02:47:57.923Z,67.40
2019-05-10T02:50:35.765Z,68.00
2019-05-10T02:53:15.943Z,67.20
2019-05-10T02:58:54.616Z,68.60
2019-05-10T03:01:34.873Z,66.90
2019-05-10T03:04:15.036Z,67.00
2019-05-10T03:10:13.444Z,68.60
2019-05-10T03:12:52.322Z,68.70
2019-05-10T03:15:33.296Z,69.00
2019-05-10T03:24:27.596Z,65.40
2019-05-10T03:27:18.092Z,64.40
2019-05-10T03:29:58.051Z,64.40
2019-05-10T03:32:40.147Z,65.00
2019-05-10T03:35:19.584Z,64.90
2019-05-10T03:40:59.401Z,64.00
2019-05-10T03:43:40.623Z,63.30
2019-05-10T03:46:23.875Z,62.90
2019-05-10T03:49:05.889Z,63.40
2019-05-10T03:51:53.684Z,62.00
2019-05-10T03:54:36.726Z,61.10
2019-05-10T03:57:19.170Z,61.30
2019-05-10T04:00:00.492Z,61.80
2019-05-10T04:02:43.022Z,62.00
2019-05-10T04:05:26.503Z,60.00
2019-05-10T04:08:06.234Z,59.40
2019-05-10T04:10:48.204Z,58.90
2019-05-10T04:13:32.948Z,59.00
2019-05-10T04:22:25.547Z,59.00
2019-05-10T04:25:08.147Z,58.60
2019-05-10T04:27:50.463Z,58.40
2019-05-10T04:30:31.780Z,57.70
2019-05-10T04:36:12.922Z,56.50
2019-05-10T04:38:58.296Z,56.20
2019-05-10T04:41:40.575Z,57.60
2019-05-10T04:44:24.501Z,57.40
2019-05-10T04:47:36.112Z,56.50
2019-05-10T04:50:20.570Z,56.40
2019-05-10T04:56:03.057Z,56.70
2019-05-10T04:58:43.412Z,56.00
2019-05-10T05:01:29.589Z,56.10
2019-05-10T05:04:19.772Z,56.50
2019-05-10T05:07:07.871Z,55.60
2019-05-10T05:12:53.473Z,56.30
2019-05-10T05:15:37.690Z,55.10
2019-05-10T05:18:28.218Z,56.10
2019-05-10T05:21:15.484Z,55.40
2019-05-10T05:23:55.089Z,55.60
2019-05-10T05:26:44.115Z,55.90
2019-05-10T05:37:15.916Z,54.80
2019-05-10T05:43:45.808Z,54.50
2019-05-10T05:46:32.410Z,55.10
2019-05-10T05:49:13.964Z,54.40
2019-05-10T05:52:04.623Z,53.90
2019-05-10T05:57:49.671Z,53.60
2019-05-10T06:00:44.400Z,53.00
2019-05-10T06:03:27.487Z,53.70
2019-05-10T06:06:15.341Z,53.80
2019-05-10T06:09:01.370Z,53.60
2019-05-10T06:14:49.542Z,53.20
2019-05-10T06:17:28.836Z,54.00
2019-05-10T06:20:07.509Z,53.90
2019-05-10T06:23:05.679Z,53.60
2019-05-10T06:25:46.881Z,53.30
2019-05-10T06:28:57.386Z,54.30
2019-05-10T06:31:18.055Z,54.00
2019-05-10T06:34:00.010Z,53.80
2019-05-10T06:36:45.998Z,54.10
2019-05-10T06:39:25.911Z,54.10
2019-05-10T06:42:07.554Z,53.80
2019-05-10T06:44:49.462Z,54.10
2019-05-10T06:47:36.184Z,54.70
2019-05-10T06:54:44.186Z,55.10
2019-05-10T07:01:07.027Z,55.60
2019-05-10T07:03:54.329Z,55.00
2019-05-10T07:06:36.443Z,55.20
2019-05-10T07:12:21.935Z,56.80
2019-05-10T07:17:57.594Z,55.80
2019-05-10T07:23:39.121Z,55.70
2019-05-10T07:26:24.672Z,56.40
2019-05-10T07:29:03.940Z,55.80
2019-05-10T07:31:50.148Z,55.50
2019-05-10T07:34:48.816Z,55.80
2019-05-10T07:41:29.367Z,55.60
2019-05-10T07:44:12.375Z,56.00
2019-05-10T07:49:52.579Z,55.70
2019-05-10T07:52:43.119Z,55.70
2019-05-10T07:55:27.731Z,55.50
2019-05-10T08:01:29.520Z,55.50
2019-05-10T08:04:02.230Z,55.30
2019-05-10T08:06:47.657Z,55.10
2019-05-10T08:09:31.645Z,55.20
2019-05-10T08:15:16.142Z,55.40
2019-05-10T08:24:13.363Z,55.50
2019-05-10T08:27:09.798Z,55.50
2019-05-10T08:32:48.543Z,55.80
2019-05-10T08:35:30.389Z,56.30
2019-05-10T08:38:13.180Z,56.20
2019-05-10T08:40:59.615Z,56.20
2019-05-10T08:44:16.567Z,56.10
2019-05-10T08:46:58.374Z,55.70
2019-05-10T08:49:56.906Z,56.00
2019-05-10T08:52:34.877Z,56.40
2019-05-10T08:58:21.614Z,56.90
2019-05-10T09:01:16.284Z,57.20
2019-05-10T09:03:59.309Z,58.00
2019-05-10T09:06:35.796Z,57.70
2019-05-10T09:09:18.433Z,58.10
2019-05-10T09:12:06.606Z,58.10
2019-05-10T09:14:43.856Z,58.20
2019-05-10T09:20:26.880Z,58.10
2019-05-10T09:23:19.875Z,57.30
2019-05-10T09:25:55.327Z,56.90
2019-05-10T09:31:45.890Z,57.30
2019-05-10T09:34:27.057Z,57.20
2019-05-10T09:37:14.326Z,57.40
2019-05-10T09:40:04.247Z,61.80
2019-05-10T09:42:40.063Z,61.00
2019-05-10T09:45:17.350Z,60.20
2019-05-10T09:51:13.879Z,59.10
2019-05-10T09:53:57.598Z,58.60
2019-05-10T09:56:52.236Z,57.60
2019-05-10T10:02:33.691Z,57.60
2019-05-10T10:05:10.434Z,58.60
2019-05-10T10:07:53.267Z,58.40
2019-05-10T10:10:37.790Z,57.70
2019-05-10T10:13:36.017Z,58.20
2019-05-10T10:19:13.059Z,59.60
2019-05-10T10:21:57.660Z,59.80
2019-05-10T10:24:48.969Z,59.90
2019-05-10T10:27:34.966Z,58.70
2019-05-10T10:30:31.190Z,58.90
2019-05-10T10:33:11.188Z,58.70
2019-05-10T10:35:56.456Z,59.10
2019-05-10T10:38:45.343Z,59.40
2019-05-10T10:41:31.526Z,58.80
2019-05-10T10:44:08.451Z,59.50
2019-05-10T10:46:53.727Z,59.10
2019-05-10T10:49:50.248Z,59.20
2019-05-10T10:52:34.695Z,59.10
2019-05-10T10:55:13.604Z,59.50
2019-05-10T11:01:20.213Z,58.80
2019-05-10T11:03:49.148Z,58.60
2019-05-10T11:06:29.246Z,58.80
2019-05-10T11:12:14.641Z,60.00
2019-05-10T11:15:03.825Z,60.30
2019-05-10T11:17:47.412Z,59.70
2019-05-10T11:20:27.260Z,60.40
2019-05-10T11:23:06.862Z,60.60
2019-05-10T11:25:54.849Z,60.20
2019-05-10T11:28:43.467Z,60.00
2019-05-10T11:31:21.362Z,61.00
2019-05-10T11:34:06.071Z,59.30
2019-05-10T11:36:50.991Z,59.60
2019-05-10T11:39:42.126Z,59.70
2019-05-10T11:42:21.285Z,59.70
2019-05-10T11:45:05.607Z,59.70
2019-05-10T11:47:54.455Z,59.80
2019-05-10T11:50:35.655Z,59.90
2019-05-10T11:53:17.649Z,59.40
2019-05-10T11:55:57.947Z,60.70
2019-05-10T11:58:46.072Z,59.90
2019-05-10T12:01:27.926Z,59.50
2019-05-10T12:04:24.087Z,60.10
2019-05-10T12:07:02.767Z,59.20
2019-05-10T12:09:43.742Z,59.20
2019-05-10T12:12:50.300Z,59.30
2019-05-10T12:15:38.069Z,59.60
2019-05-10T12:18:26.283Z,60.10
2019-05-10T12:21:44.313Z,62.10
2019-05-10T12:27:55.513Z,63.30
2019-05-10T12:30:57.628Z,62.70
2019-05-10T12:33:44.767Z,61.40
2019-05-10T12:36:31.794Z,61.80
2019-05-10T12:39:13.445Z,63.60
2019-05-10T12:41:58.780Z,63.70
2019-05-10T12:44:48.068Z,62.80
2019-05-10T12:47:33.782Z,62.70
2019-05-10T12:50:20.222Z,62.90
2019-05-10T12:53:15.784Z,64.60
2019-05-10T12:56:07.691Z,64.10
2019-05-10T12:58:59.684Z,64.50
2019-05-10T13:01:43.520Z,63.70
2019-05-10T13:04:40.744Z,63.30
2019-05-10T13:07:25.443Z,63.20
2019-05-10T13:10:15.193Z,61.60
2019-05-10T13:16:09.889Z,61.70
2019-05-10T13:18:57.955Z,61.60
2019-05-10T13:22:14.287Z,62.20
2019-05-10T13:28:41.344Z,61.70
2019-05-10T13:43:17.403Z,63.30
2019-05-10T13:49:50.310Z,62.90
2019-05-10T13:52:47.786Z,63.60
2019-05-10T13:59:14.002Z,63.00
2019-05-10T14:02:00.858Z,62.70
2019-05-10T14:15:55.455Z,62.00
2019-05-10T14:25:36.143Z,61.90
2019-05-10T14:28:39.105Z,62.40
2019-05-10T14:31:24.058Z,62.80
2019-05-10T14:34:15.561Z,62.90
2019-05-10T14:37:01.110Z,63.00
2019-05-10T14:40:00.571Z,62.90
2019-05-10T15:04:47.070Z,63.40
2019-05-10T15:31:00.646Z,64.10
2019-05-10T15:38:20.613Z,64.60
2019-05-10T15:41:34.859Z,64.60
2019-05-10T15:44:30.380Z,64.60
2019-05-10T15:47:20.595Z,64.80
2019-05-10T15:50:14.380Z,64.80
2019-05-10T15:53:00.917Z,64.50
2019-05-10T15:59:19.273Z,64.20
2019-05-10T16:02:08.647Z,64.00
2019-05-10T16:08:17.759Z,63.70
2019-05-10T16:14:14.881Z,64.40
2019-05-10T16:17:02.766Z,64.50
2019-05-10T16:19:59.469Z,64.60
2019-05-10T16:22:47.134Z,64.70
2019-05-10T16:25:32.919Z,64.90
2019-05-10T16:28:20.639Z,65.10
2019-05-10T16:31:05.003Z,65.40
2019-05-10T16:34:00.392Z,65.30
2019-05-10T16:36:42.557Z,65.10
2019-05-10T16:39:22.830Z,65.00
2019-05-10T16:42:03.454Z,65.10
2019-05-10T16:44:45.860Z,65.20
2019-05-10T16:47:26.852Z,65.20
2019-05-10T16:50:11.122Z,65.40
2019-05-10T16:53:05.634Z,65.50
2019-05-10T16:55:42.965Z,65.50
2019-05-10T16:58:27.640Z,65.40
2019-05-10T17:01:10.105Z,65.60
2019-05-10T17:07:00.962Z,65.60
2019-05-10T17:09:41.894Z,65.90
2019-05-10T17:12:27.777Z,66.20
2019-05-10T17:15:11.767Z,66.10
2019-05-10T17:18:10.364Z,66.10
2019-05-10T17:20:50.932Z,66.30
2019-05-10T17:26:52.907Z,66.40
2019-05-10T17:29:37.652Z,66.40
2019-05-10T17:32:18.818Z,65.90
2019-05-10T17:35:06.784Z,65.60
2019-05-10T17:40:51.237Z,65.90
2019-05-10T17:43:32.679Z,65.90
2019-05-10T17:49:12.915Z,66.10
2019-05-10T17:51:52.543Z,66.50
2019-05-10T17:57:48.725Z,67.40
2019-05-10T18:00:26.781Z,67.30
2019-05-10T18:03:07.779Z,66.90
2019-05-10T18:05:53.175Z,66.80
2019-05-10T18:11:31.133Z,66.90
2019-05-10T18:14:17.300Z,67.70
2019-05-10T18:16:54.286Z,67.20
2019-05-10T18:19:36.076Z,67.40
2019-05-10T18:22:17.074Z,67.40
2019-05-10T18:25:00.856Z,66.90
2019-05-10T18:27:43.885Z,66.70
2019-05-10T18:30:24.821Z,67.40
2019-05-10T18:33:14.717Z,66.30
2019-05-10T18:35:59.363Z,66.40
2019-05-10T18:38:39.121Z,66.40
2019-05-10T18:41:19.145Z,66.80
2019-05-10T18:43:58.829Z,67.00
2019-05-10T18:46:40.510Z,67.20
2019-05-10T18:49:29.174Z,67.40
2019-05-10T18:52:06.739Z,67.40
2019-05-10T18:54:50.030Z,67.50
2019-05-10T18:57:33.147Z,67.40
2019-05-10T19:00:17.620Z,67.40
2019-05-10T19:02:57.327Z,67.30
2019-05-10T19:05:42.034Z,67.30
2019-05-10T19:08:21.903Z,67.30
2019-05-10T19:11:06.273Z,67.40
2019-05-10T19:13:53.832Z,67.50
2019-05-10T19:16:32.118Z,67.70
2019-05-10T19:19:14.313Z,68.10
2019-05-10T19:22:02.837Z,68.10
2019-05-10T19:24:43.548Z,67.60
2019-05-10T19:27:25.375Z,67.00
2019-05-10T19:30:08.503Z,67.10
2019-05-10T19:32:51.301Z,66.90
2019-05-10T19:35:35.848Z,67.20
2019-05-10T19:38:14.393Z,67.40
2019-05-10T19:40:55.560Z,67.70
2019-05-10T19:43:36.163Z,67.90
2019-05-10T19:46:15.416Z,68.10
2019-05-10T19:48:58.330Z,68.20
2019-05-10T19:51:42.149Z,68.40
2019-05-10T19:54:21.324Z,68.10
2019-05-10T19:57:01.513Z,67.80
2019-05-10T19:59:43.884Z,68.20
2019-05-10T20:02:25.833Z,68.10
2019-05-10T20:05:07.030Z,68.30
2019-05-10T20:07:48.690Z,68.50
2019-05-10T20:10:28.589Z,68.60
2019-05-10T20:13:12.017Z,68.70
2019-05-10T20:15:50.231Z,69.10
2019-05-10T20:18:32.562Z,69.20
2019-05-10T20:21:13.465Z,69.20
2019-05-10T20:23:56.369Z,69.30
2019-05-10T20:26:37.857Z,69.30
2019-05-10T20:29:18.407Z,69.60
2019-05-10T20:32:00.394Z,69.10
2019-05-10T20:34:42.702Z,68.90
2019-05-10T20:37:21.713Z,69.10
2019-05-10T20:40:00.734Z,69.20
2019-05-10T20:42:43.025Z,69.30
2019-05-10T20:45:22.292Z,69.60
2019-05-10T20:48:04.514Z,69.60
2019-05-10T20:50:45.076Z,69.80
2019-05-10T20:53:26.351Z,69.90
2019-05-10T20:56:07.782Z,69.60
2019-05-10T20:58:49.626Z,69.20
2019-05-10T21:01:31.426Z,69.40
2019-05-10T21:04:17.689Z,69.50
2019-05-10T21:06:59.284Z,69.70
2019-05-10T21:09:41.535Z,69.80
2019-05-10T21:12:21.550Z,70.90
2019-05-10T21:15:03.320Z,70.10
2019-05-10T21:17:44.295Z,70.30
2019-05-10T21:20:22.890Z,70.50
2019-05-10T21:23:03.112Z,70.60
2019-05-10T21:25:45.770Z,70.90
2019-05-10T21:28:27.927Z,70.80
2019-05-10T21:31:09.961Z,70.90
2019-05-10T21:34:07.361Z,70.80
2019-05-10T21:36:33.875Z,70.60
2019-05-10T21:39:12.484Z,70.70
2019-05-10T21:41:58.778Z,70.90
2019-05-10T21:44:52.198Z,71.00
2019-05-10T21:47:34.003Z,71.20
2019-05-10T21:50:14.731Z,71.40
2019-05-10T21:52:58.037Z,71.50
2019-05-10T21:55:40.079Z,71.60
2019-05-10T21:58:19.057Z,71.60
2019-05-10T22:01:01.607Z,71.80
2019-05-10T22:03:40.979Z,71.90
2019-05-10T22:06:26.568Z,71.10
2019-05-10T22:09:06.989Z,70.90
2019-05-10T22:11:48.140Z,71.00
2019-05-10T22:14:30.924Z,71.10
2019-05-10T22:17:12.483Z,71.10
2019-05-10T22:19:54.612Z,71.40
2019-05-10T22:22:37.556Z,71.40
2019-05-10T22:25:17.770Z,71.50
2019-05-10T22:28:05.815Z,71.60
2019-05-10T22:30:44.939Z,71.10
2019-05-10T22:33:23.889Z,70.90
2019-05-10T22:39:06.876Z,71.60
2019-05-10T22:41:45.998Z,71.70
2019-05-10T22:44:28.224Z,71.50
2019-05-10T22:47:07.939Z,71.60
2019-05-10T22:49:53.712Z,71.50
2019-05-10T22:52:35.115Z,71.60
2019-05-10T22:55:13.581Z,71.70
2019-05-10T22:57:54.384Z,71.70
2019-05-10T23:00:35.873Z,71.40
2019-05-10T23:03:17.169Z,71.00
2019-05-10T23:06:01.455Z,71.40
2019-05-10T23:08:41.055Z,71.40
2019-05-10T23:11:22.691Z,71.50
2019-05-10T23:14:04.913Z,71.60
2019-05-10T23:16:50.469Z,71.80
2019-05-10T23:19:30.113Z,72.00
2019-05-10T23:22:15.988Z,72.90
2019-05-10T23:24:57.736Z,73.60
2019-05-10T23:27:41.261Z,73.60
2019-05-10T23:33:26.274Z,72.80
2019-05-10T23:36:06.941Z,72.40
2019-05-10T23:38:52.283Z,72.60
2019-05-10T23:41:33.466Z,73.40
2019-05-10T23:44:17.035Z,72.90
2019-05-10T23:46:59.459Z,72.70
2019-05-10T23:49:40.256Z,74.00
2019-05-10T23:52:22.345Z,72.70
2019-05-10T23:55:01.464Z,73.40
2019-05-10T23:57:53.373Z,73.40
